Terminal Aerodrome Forecast
Issued by NWS

Home | Current Version | Previous Version | Text Only | Print | Product List | Glossary On
Versions: 1 2 3 4 5 6 7 8 9 10 11 12 13 14 15 16 17 18 19 20 21 22 23 24 25 26 27
000
FTUS43 KDLH 271737
TAFHYR
TAF
KHYR 271737Z 2718/2818 01004KT P6SM VCSH OVC090
     FM272000 06006KT P6SM -SHRA OVC050
     FM280300 03003KT 4SM -SHRA OVC007
     FM280600 00000KT 1 1/2SM BR VCSH OVC004
     FM280900 00000KT 1/2SM FG OVC001
     FM281600 VRB02KT 4SM BR OVC007=

USA.gov is the U.S. government's official web portal to all federal, state and local government web resources and services.